Time;durP1;ratioP1;P1;durP2;ratioP2;P2;SDS_P1;SDS_P2;PMS_P1;PMS_P2;Temp;Humidity;BMP_temperature;BMP_pressure;BME280_temperature;BME280_humidity;BME280_pressure;Samples;Min_cycle;Max_cycle;Signal;HPM_P1;HPM_P2
2023/05/13 00:01:49;;;;;;;19.35;9.43;;;;;;;13.71;94.65;98284.09;4456894;32;20097;-78
2023/05/13 00:04:16;;;;;;;17.00;9.18;;;;;;;12.96;98.58;98285.22;4456670;32;20096;-78
2023/05/13 00:06:43;;;;;;;20.40;10.00;;;;;;;13.36;96.99;98283.28;4456929;32;20089;-78
2023/05/13 00:09:10;;;;;;;18.52;9.65;;;;;;;13.40;96.37;98283.06;4456401;32;20103;-78
2023/05/13 00:11:37;;;;;;;18.83;9.48;;;;;;;12.94;98.11;98282.69;4456946;32;20162;-78
2023/05/13 00:14:05;;;;;;;19.10;9.70;;;;;;;12.63;99.95;98280.75;4456848;32;20101;-79
2023/05/13 00:16:32;;;;;;;18.50;9.43;;;;;;;13.15;98.48;98290.34;4456511;32;20547;-78
2023/05/13 00:18:59;;;;;;;18.98;10.23;;;;;;;12.75;99.72;98284.50;4456728;32;20077;-78
2023/05/13 00:21:26;;;;;;;19.17;10.63;;;;;;;12.45;100.00;98281.62;4456701;32;20089;-78
2023/05/13 00:23:53;;;;;;;18.95;9.57;;;;;;;12.85;100.00;98285.72;4456531;32;20545;-79
2023/05/13 00:26:20;;;;;;;21.30;10.75;;;;;;;12.97;99.47;98284.31;4456744;32;20086;-78
2023/05/13 00:28:47;;;;;;;18.27;9.57;;;;;;;12.62;99.65;98280.81;4456747;32;20100;-78
2023/05/13 00:31:14;;;;;;;20.35;10.60;;;;;;;12.53;100.00;98276.91;4456158;32;20101;-78
2023/05/13 00:33:41;;;;;;;22.58;10.35;;;;;;;12.04;100.00;98279.19;4456821;32;20092;-78
2023/05/13 00:36:11;;;;;;;19.08;10.07;;;;;;;12.55;100.00;98277.69;4456680;32;20089;-78
2023/05/13 00:38:37;;;;;;;15.10;7.95;;;;;;;12.10;100.00;98278.87;4456257;32;20472;-78
2023/05/13 00:41:05;;;;;;;18.48;10.05;;;;;;;12.01;100.00;98286.22;4456599;32;20146;-78
2023/05/13 00:43:32;;;;;;;18.37;10.07;;;;;;;12.54;100.00;98282.91;4456330;32;20084;-78
2023/05/13 00:45:58;;;;;;;20.17;9.93;;;;;;;12.79;100.00;98286.03;4456195;32;20104;-78
2023/05/13 00:48:25;;;;;;;16.27;8.45;;;;;;;12.78;98.71;98280.94;4456594;32;20077;-78
2023/05/13 00:50:52;;;;;;;18.40;9.80;;;;;;;12.71;98.94;98291.56;4456614;32;20395;-78
2023/05/13 00:53:19;;;;;;;17.12;7.37;;;;;;;12.40;100.00;98292.16;4456298;32;20085;-78
2023/05/13 00:55:46;;;;;;;15.77;7.03;;;;;;;12.76;98.50;98281.03;4442669;32;20085;-78
2023/05/13 00:58:13;;;;;;;17.87;9.35;;;;;;;12.52;100.00;98289.94;4456496;32;20105;-78
2023/05/13 01:00:52;;;;;;;19.02;10.13;;;;;;;12.58;100.00;98293.06;4456313;32;20089;-78
2023/05/13 01:03:43;;;;;;;16.55;8.70;;;;;;;12.67;99.33;98290.06;4456767;32;20556;-79
2023/05/13 01:06:13;;;;;;;17.80;9.70;;;;;;;12.69;99.17;98292.56;4456292;32;20760;-79
2023/05/13 01:08:50;;;;;;;19.20;8.50;;;;;;;13.00;97.76;98289.34;4456574;32;20082;-79
2023/05/13 01:11:20;;;;;;;16.25;8.80;;;;;;;12.60;100.00;98291.25;4456637;32;20432;-78
2023/05/13 01:13:50;;;;;;;19.00;10.05;;;;;;;12.26;100.00;98297.16;4456009;32;20097;-78
2023/05/13 01:16:19;;;;;;;14.93;7.70;;;;;;;12.22;100.00;98295.59;4442597;32;20097;-78
2023/05/13 01:18:51;;;;;;;20.95;9.20;;;;;;;12.59;100.00;98294.75;4456240;32;20420;-78
2023/05/13 01:21:25;;;;;;;16.00;8.63;;;;;;;12.19;100.00;98303.50;4456031;32;20505;-78
2023/05/13 01:23:52;;;;;;;19.05;9.35;;;;;;;12.66;100.00;98297.91;4442603;32;20451;-78
2023/05/13 01:26:20;;;;;;;18.00;9.20;;;;;;;13.05;98.03;98300.31;4456302;32;20088;-79
2023/05/13 01:28:47;;;;;;;20.88;10.25;;;;;;;12.38;100.00;98306.09;4442207;32;20082;-79
2023/05/13 01:31:14;;;;;;;15.45;7.60;;;;;;;12.32;100.00;98303.78;4456361;32;20101;-78
2023/05/13 01:33:42;;;;;;;22.65;10.93;;;;;;;12.94;99.83;98302.59;4456023;32;20570;-78
2023/05/13 01:36:09;;;;;;;17.35;8.15;;;;;;;12.36;100.00;98298.41;4456276;32;20088;-78
2023/05/13 01:38:36;;;;;;;20.30;11.18;;;;;;;12.82;100.00;98304.00;4456218;32;20069;-78
2023/05/13 01:41:03;;;;;;;21.48;11.38;;;;;;;12.81;100.00;98298.91;4455855;32;20108;-78
2023/05/13 01:43:30;;;;;;;20.58;10.32;;;;;;;12.40;100.00;98307.69;4455115;32;20526;-78
2023/05/13 01:45:59;;;;;;;18.45;9.50;;;;;;;12.46;100.00;98304.00;4456202;32;20084;-78
2023/05/13 01:48:26;;;;;;;19.77;9.50;;;;;;;12.54;100.00;98307.06;4455690;32;20081;-78
2023/05/13 01:50:54;;;;;;;18.02;8.95;;;;;;;13.05;97.92;98302.91;4456293;32;20094;-78
2023/05/13 01:53:21;;;;;;;17.75;9.00;;;;;;;12.65;98.74;98303.97;4456239;32;20093;-79
2023/05/13 01:55:49;;;;;;;16.80;8.98;;;;;;;12.70;99.57;98299.41;4455810;32;20080;-79
2023/05/13 01:58:15;;;;;;;16.62;8.82;;;;;;;12.70;100.00;98295.09;4456045;32;20069;-79
2023/05/13 02:00:42;;;;;;;17.65;9.40;;;;;;;12.52;99.45;98300.28;4456192;32;20089;-78
2023/05/13 02:03:09;;;;;;;17.70;9.90;;;;;;;12.41;100.00;98296.44;4455758;32;20112;-78
2023/05/13 02:05:36;;;;;;;12.35;4.65;;;;;;;12.12;100.00;98299.50;4456115;32;20147;-78
2023/05/13 02:08:03;;;;;;;19.20;9.63;;;;;;;12.56;100.00;98297.50;4455907;32;20135;-78
2023/05/13 02:10:30;;;;;;;17.10;8.88;;;;;;;12.54;100.00;98307.06;4455738;32;20106;-78
2023/05/13 02:12:57;;;;;;;19.30;9.55;;;;;;;12.50;100.00;98294.34;4456049;32;20101;-78
2023/05/13 02:15:24;;;;;;;18.23;9.90;;;;;;;12.34;100.00;98299.41;4455996;32;20085;-78
2023/05/13 02:17:51;;;;;;;16.30;8.55;;;;;;;12.53;100.00;98297.62;4455671;32;20069;-78
2023/05/13 02:20:18;;;;;;;19.58;9.95;;;;;;;12.85;97.68;98293.50;4441982;32;20101;-79
2023/05/13 02:22:45;;;;;;;14.73;8.25;;;;;;;12.75;98.33;98294.84;4441621;32;20637;-78
2023/05/13 02:25:12;;;;;;;17.98;9.23;;;;;;;12.19;100.00;98294.91;4455957;32;20165;-78
2023/05/13 02:27:39;;;;;;;19.55;10.85;;;;;;;11.86;100.00;98291.16;4441976;32;20104;-78
2023/05/13 02:30:06;;;;;;;19.23;10.43;;;;;;;11.90;100.00;98298.78;4455454;32;20447;-78
2023/05/13 02:32:33;;;;;;;21.20;11.10;;;;;;;12.14;100.00;98297.72;4455880;32;20094;-78
2023/05/13 02:35:00;;;;;;;18.48;9.98;;;;;;;12.10;100.00;98296.16;4455748;32;20156;-78
2023/05/13 02:37:27;;;;;;;22.92;10.75;;;;;;;12.49;100.00;98305.59;4455379;32;20081;-78
2023/05/13 02:39:54;;;;;;;21.08;9.23;;;;;;;12.56;100.00;98301.81;4455671;32;20089;-78
2023/05/13 02:42:21;;;;;;;20.67;10.73;;;;;;;12.18;100.00;98303.56;4455617;32;20101;-78
2023/05/13 02:44:47;;;;;;;19.25;9.57;;;;;;;12.21;100.00;98306.84;4454980;32;20080;-78
2023/05/13 02:47:14;;;;;;;19.30;8.40;;;;;;;12.36;100.00;98306.16;4455514;32;20081;-78
2023/05/13 02:49:41;;;;;;;18.05;9.50;;;;;;;11.79;100.00;98291.47;4455350;32;20508;-78
2023/05/13 02:52:08;;;;;;;21.85;11.77;;;;;;;12.13;100.00;98298.63;4455311;32;20101;-78
2023/05/13 02:54:35;;;;;;;21.80;11.65;;;;;;;12.30;100.00;98309.03;4456433;32;20103;-78
2023/05/13 02:57:02;;;;;;;24.00;11.60;;;;;;;12.21;100.00;98308.59;4457382;32;20157;-78
2023/05/13 02:59:29;;;;;;;22.20;11.07;;;;;;;12.11;100.00;98301.25;4456970;32;20097;-78
2023/05/13 03:01:56;;;;;;;21.60;10.95;;;;;;;12.16;100.00;98308.81;4457347;32;20090;-78
2023/05/13 03:04:24;;;;;;;22.23;11.05;;;;;;;12.05;100.00;98314.47;4457358;32;20103;-78
2023/05/13 03:06:51;;;;;;;15.98;8.10;;;;;;;12.10;100.00;98303.91;4456952;32;20150;-78
2023/05/13 03:09:18;;;;;;;19.80;9.90;;;;;;;12.28;100.00;98308.25;4457316;32;20089;-78
2023/05/13 03:11:45;;;;;;;17.77;9.25;;;;;;;12.94;96.98;98316.37;4456966;32;20337;-78
2023/05/13 03:14:12;;;;;;;20.52;8.63;;;;;;;12.22;100.00;98308.53;4457321;32;20081;-78
2023/05/13 03:16:39;;;;;;;16.85;7.75;;;;;;;12.73;98.25;98314.81;4457285;32;20081;-78
2023/05/13 03:19:06;;;;;;;22.80;10.07;;;;;;;12.69;96.77;98311.53;4456843;32;20089;-78
2023/05/13 03:21:33;;;;;;;21.33;10.15;;;;;;;12.25;99.34;98313.59;4457299;32;20714;-78
2023/05/13 03:24:00;;;;;;;19.70;9.57;;;;;;;12.33;100.00;98319.22;4457233;32;20152;-78
2023/05/13 03:26:27;;;;;;;18.02;9.57;;;;;;;12.19;100.00;98318.19;4456822;32;20349;-78
2023/05/13 03:28:54;;;;;;;18.85;10.35;;;;;;;12.11;100.00;98326.28;4457056;32;20424;-78
2023/05/13 03:31:21;;;;;;;19.65;10.52;;;;;;;12.37;99.69;98317.34;4457103;32;20154;-78
2023/05/13 03:33:48;;;;;;;19.50;9.88;;;;;;;11.92;100.00;98325.44;4456865;32;20435;-78
2023/05/13 03:36:15;;;;;;;19.27;9.43;;;;;;;12.67;98.12;98320.28;4457141;32;20089;-78
2023/05/13 03:38:42;;;;;;;15.55;8.38;;;;;;;12.27;99.93;98314.34;4457084;32;20093;-78
2023/05/13 03:41:09;;;;;;;17.65;8.25;;;;;;;12.22;99.82;98321.47;4442736;32;20460;-78
2023/05/13 03:43:36;;;;;;;21.75;10.90;;;;;;;12.26;99.31;98323.03;4456785;32;20092;-78
2023/05/13 03:46:03;;;;;;;21.35;11.43;;;;;;;12.21;98.31;98322.38;4457021;32;20200;-78
2023/05/13 03:48:30;;;;;;;23.40;12.48;;;;;;;12.30;99.13;98321.97;4456503;32;20440;-78
2023/05/13 03:50:57;;;;;;;18.55;9.77;;;;;;;12.43;98.75;98325.66;4456996;32;20101;-79
2023/05/13 03:53:24;;;;;;;22.98;12.30;;;;;;;12.10;100.00;98327.19;4456940;32;20084;-78
2023/05/13 03:55:50;;;;;;;19.98;8.23;;;;;;;12.51;98.83;98334.84;4456534;32;20115;-78
2023/05/13 03:58:18;;;;;;;23.08;11.45;;;;;;;12.34;100.00;98328.69;4456940;32;20089;-78
2023/05/13 04:00:46;;;;;;;17.83;6.95;;;;;;;11.96;100.00;98340.72;4456651;32;20097;-79
2023/05/13 04:03:16;;;;;;;21.02;11.00;;;;;;;12.49;99.69;98331.47;4456794;32;20103;-78
2023/05/13 04:05:45;;;;;;;23.15;12.10;;;;;;;12.71;98.19;98339.94;4456427;32;20089;-78
2023/05/13 04:08:12;;;;;;;20.52;10.52;;;;;;;13.08;94.77;98339.03;4456395;32;20143;-78
2023/05/13 04:10:39;;;;;;;17.98;9.32;;;;;;;12.59;98.15;98341.34;4456961;32;20097;-78
2023/05/13 04:13:06;;;;;;;16.75;8.50;;;;;;;12.57;98.96;98337.16;4456957;32;20133;-78
2023/05/13 04:15:33;;;;;;;24.63;12.05;;;;;;;12.15;100.00;98344.19;4456481;32;20154;-78
2023/05/13 04:18:00;;;;;;;23.95;12.55;;;;;;;12.26;100.00;98348.88;4456746;32;20432;-78
2023/05/13 04:20:28;;;;;;;24.00;13.23;;;;;;;12.41;100.00;98343.00;4456916;32;20086;-78
2023/05/13 04:22:55;;;;;;;22.02;11.73;;;;;;;12.43;99.65;98340.34;4456340;32;20141;-78
2023/05/13 04:25:21;;;;;;;23.75;12.80;;;;;;;12.72;97.89;98349.38;4456878;32;20085;-78
2023/05/13 04:27:48;;;;;;;23.12;11.38;;;;;;;12.66;98.52;98355.69;4456460;32;20145;-78
2023/05/13 04:30:15;;;;;;;25.10;13.45;;;;;;;12.01;100.00;98354.28;4456381;32;20103;-78
2023/05/13 04:32:42;;;;;;;22.73;10.32;;;;;;;12.23;100.00;98356.81;4456734;32;20081;-78
2023/05/13 04:35:10;;;;;;;25.15;13.43;;;;;;;12.45;100.00;98357.50;4456615;32;20081;-78
2023/05/13 04:37:37;;;;;;;24.10;12.98;;;;;;;12.42;100.00;98357.63;4456031;32;20093;-78
2023/05/13 04:40:05;;;;;;;24.87;13.35;;;;;;;12.74;98.99;98358.75;4456787;32;20443;-78
2023/05/13 04:42:32;;;;;;;23.08;11.65;;;;;;;12.77;99.68;98356.94;4456601;32;20159;-78
2023/05/13 04:44:59;;;;;;;20.40;10.82;;;;;;;12.54;99.52;98355.37;4456289;32;20080;-79
2023/05/13 04:47:26;;;;;;;22.60;11.57;;;;;;;12.60;99.21;98361.13;4456628;32;20101;-79
2023/05/13 04:49:53;;;;;;;22.00;12.02;;;;;;;12.00;100.00;98364.69;4456359;32;20124;-78
2023/05/13 04:52:20;;;;;;;22.87;11.65;;;;;;;12.42;100.00;98357.63;4456575;32;20089;-78
2023/05/13 04:54:47;;;;;;;21.67;12.02;;;;;;;12.32;100.00;98368.47;4456575;32;20515;-78
2023/05/13 04:57:14;;;;;;;18.73;9.57;;;;;;;12.40;100.00;98374.12;4456142;32;20117;-79
2023/05/13 04:59:41;;;;;;;24.58;13.52;;;;;;;12.25;100.00;98375.66;4456580;32;20115;-79
2023/05/13 05:02:08;;;;;;;24.37;12.43;;;;;;;12.07;100.00;98379.91;4456515;32;20077;-79
2023/05/13 05:04:35;;;;;;;21.25;11.95;;;;;;;12.42;100.00;98378.31;4456029;32;20081;-78
2023/05/13 05:07:01;;;;;;;21.30;9.73;;;;;;;12.67;98.30;98372.06;4456422;32;20101;-78
2023/05/13 05:09:29;;;;;;;;;;;;;;;12.57;100.00;98381.16;4456816;32;20097;-78
2023/05/13 05:11:55;;;;;;;24.90;11.98;;;;;;;12.18;100.00;98383.75;4456207;32;19987;-78
2023/05/13 05:14:22;;;;;;;;;;;;;;;12.64;98.61;98375.59;4456784;32;20111;-78
2023/05/13 05:16:49;;;;;;;24.92;12.80;;;;;;;12.45;98.22;98385.13;4456087;32;20008;-78
2023/05/13 05:19:16;;;;;;;15.90;7.35;;;;;;;12.47;98.23;98393.66;4455154;32;20104;-78
2023/05/13 05:21:43;;;;;;;22.95;12.05;;;;;;;13.01;96.11;98390.28;4456541;32;20100;-78
2023/05/13 05:24:10;;;;;;;22.50;12.32;;;;;;;12.75;96.92;98393.25;4456305;32;20130;-78
2023/05/13 05:26:36;;;;;;;25.85;13.57;;;;;;;13.00;95.54;98396.38;4455923;32;20120;-79
2023/05/13 05:29:03;;;;;;;16.50;8.80;;;;;;;12.70;98.36;98398.63;4456243;32;20115;-79
2023/05/13 05:31:30;;;;;;;24.27;13.45;;;;;;;12.43;98.78;98405.03;4456461;32;20462;-79
2023/05/13 05:33:57;;;;;;;22.70;12.95;;;;;;;12.29;99.76;98407.41;4455934;32;20120;-78
2023/05/13 05:36:24;;;;;;;25.95;13.65;;;;;;;12.13;100.00;98402.09;4456315;32;20089;-78
2023/05/13 05:38:51;;;;;;;22.17;12.80;;;;;;;12.33;99.55;98407.19;4442355;32;20123;-78
2023/05/13 05:41:18;;;;;;;18.98;9.45;;;;;;;12.57;98.75;98407.03;4456056;32;20085;-78
2023/05/13 05:43:45;;;;;;;21.55;12.50;;;;;;;12.57;98.73;98407.03;4455879;32;20120;-79
2023/05/13 05:46:12;;;;;;;22.62;12.40;;;;;;;12.94;97.00;98401.00;4455959;32;20093;-78
2023/05/13 05:48:39;;;;;;;22.30;12.68;;;;;;;12.84;95.98;98404.94;4456222;32;20101;-78
2023/05/13 05:51:06;;;;;;;24.80;11.73;;;;;;;12.51;97.66;98420.25;4456253;32;20085;-78
2023/05/13 05:53:34;;;;;;;22.67;11.80;;;;;;;12.41;99.48;98415.47;4455866;32;20081;-79
2023/05/13 05:56:01;;;;;;;21.55;11.40;;;;;;;12.21;99.84;98415.50;4456154;32;20538;-79
2023/05/13 05:58:28;;;;;;;21.58;12.82;;;;;;;12.67;97.86;98403.97;4456091;32;20100;-79
2023/05/13 06:00:55;;;;;;;24.05;12.37;;;;;;;12.17;100.00;98408.78;4455700;32;20089;-79
2023/05/13 06:03:23;;;;;;;22.77;12.55;;;;;;;12.12;100.00;98414.19;4456110;32;20484;-79
2023/05/13 06:05:50;;;;;;;21.83;12.37;;;;;;;12.18;100.00;98412.22;4456034;32;20165;-79
2023/05/13 06:08:17;;;;;;;19.75;11.25;;;;;;;12.70;99.67;98413.34;4455539;32;20123;-79
2023/05/13 06:10:44;;;;;;;21.95;12.10;;;;;;;12.67;98.29;98397.94;4442256;32;20089;-79
2023/05/13 06:13:11;;;;;;;19.80;11.60;;;;;;;12.41;99.02;98410.28;4456043;32;20081;-79
2023/05/13 06:15:37;;;;;;;;;;;;;;;11.85;100.00;98412.75;4456038;32;20093;-79
2023/05/13 06:18:04;;;;;;;17.15;8.32;;;;;;;11.98;100.00;98406.16;4456056;32;19972;-79
2023/05/13 06:20:32;;;;;;;19.83;10.50;;;;;;;12.37;100.00;98415.69;4456114;32;20084;-79
2023/05/13 06:22:58;;;;;;;21.48;11.48;;;;;;;12.27;100.00;98412.66;4455495;32;20490;-79
2023/05/13 06:25:25;;;;;;;20.10;10.95;;;;;;;12.35;100.00;98415.75;4455891;32;20093;-79
2023/05/13 06:27:52;;;;;;;16.85;8.05;;;;;;;12.73;98.92;98410.59;4455789;32;20111;-79
2023/05/13 06:30:20;;;;;;;20.17;9.77;;;;;;;12.38;100.00;98413.03;4455140;32;20426;-79
2023/05/13 06:32:47;;;;;;;17.80;8.93;;;;;;;12.60;98.54;98410.31;4455782;32;20107;-79
2023/05/13 06:35:27;;;;;;;19.05;9.82;;;;;;;12.48;100.00;98416.06;4455567;32;20102;-79
2023/05/13 06:37:54;;;;;;;19.30;10.23;;;;;;;12.69;99.21;98414.25;4455719;32;20109;-79
2023/05/13 06:40:21;;;;;;;17.80;10.35;;;;;;;12.75;97.29;98412.19;4455671;32;20156;-79
2023/05/13 06:42:48;;;;;;;18.20;9.68;;;;;;;12.34;98.45;98415.84;4455240;32;20109;-79
2023/05/13 06:45:15;;;;;;;19.10;10.00;;;;;;;12.66;97.46;98417.81;4455577;32;20108;-79
2023/05/13 06:47:42;;;;;;;18.83;10.13;;;;;;;13.07;96.00;98417.63;4446107;32;305399;-79
2023/05/13 06:50:09;;;;;;;19.65;10.25;;;;;;;13.25;94.25;98426.34;4455047;32;20093;-79
2023/05/13 06:52:36;;;;;;;20.73;10.40;;;;;;;12.99;95.86;98420.63;4455576;32;20187;-79
2023/05/13 06:55:06;;;;;;;16.67;9.93;;;;;;;13.62;92.81;98430.59;4455569;32;20445;-79
2023/05/13 06:57:33;;;;;;;17.77;10.40;;;;;;;13.32;92.55;98428.56;4455107;32;20108;-79
2023/05/13 07:00:09;;;;;;;17.80;8.05;;;;;;;13.87;90.23;98430.22;4455523;32;20502;-79
2023/05/13 07:02:36;;;;;;;17.25;9.68;;;;;;;13.38;91.75;98434.38;4455201;32;20077;-79
2023/05/13 07:05:03;;;;;;;18.10;9.80;;;;;;;13.44;90.94;98424.56;4455028;32;20418;-79
2023/05/13 07:07:30;;;;;;;16.77;8.77;;;;;;;13.12;91.42;98428.66;4455257;32;20407;-79
2023/05/13 07:09:57;;;;;;;16.60;8.68;;;;;;;13.46;90.08;98422.72;4455309;32;20088;-79
2023/05/13 07:12:24;;;;;;;16.55;8.85;;;;;;;13.80;89.12;98429.69;4454939;32;20108;-79
2023/05/13 07:14:51;;;;;;;11.95;5.15;;;;;;;13.89;86.15;98429.22;4441255;32;20373;-79
2023/05/13 07:17:18;;;;;;;16.17;9.38;;;;;;;14.57;84.76;98421.47;4454859;32;20109;-79
2023/05/13 07:19:45;;;;;;;15.95;7.55;;;;;;;14.31;83.20;98427.97;4455088;32;20102;-79
2023/05/13 07:22:12;;;;;;;19.00;8.68;;;;;;;14.17;83.43;98431.28;4455081;32;20158;-79
2023/05/13 07:24:40;;;;;;;15.68;8.55;;;;;;;14.08;83.14;98426.56;4454586;32;20089;-79
2023/05/13 07:27:07;;;;;;;15.23;7.95;;;;;;;13.23;89.59;98435.94;4454973;32;20423;-79
2023/05/13 07:29:34;;;;;;;13.60;6.47;;;;;;;13.92;84.56;98430.81;4454823;32;20080;-79
2023/05/13 07:32:05;;;;;;;18.90;9.88;;;;;;;13.36;85.87;98433.59;4454636;32;20541;-79
2023/05/13 07:34:32;;;;;;;16.92;7.82;;;;;;;13.27;86.87;98434.88;4454970;32;20149;-79
2023/05/13 07:36:59;;;;;;;16.45;9.02;;;;;;;13.45;86.95;98438.34;4454839;32;20105;-79
2023/05/13 07:39:26;;;;;;;17.87;8.45;;;;;;;13.32;87.30;98438.09;4454386;32;20113;-79
2023/05/13 07:41:53;;;;;;;20.95;10.00;;;;;;;13.94;85.13;98430.78;4456299;32;20130;-79
2023/05/13 07:44:20;;;;;;;15.10;7.87;;;;;;;13.63;86.45;98434.88;4456863;32;20101;-79
2023/05/13 07:46:48;;;;;;;16.52;9.02;;;;;;;14.12;85.86;98433.25;4456767;32;20089;-79
2023/05/13 07:49:15;;;;;;;14.57;7.47;;;;;;;14.22;87.14;98430.19;4456983;32;20600;-79
2023/05/13 07:51:42;;;;;;;19.45;8.63;;;;;;;14.34;83.61;98440.78;4456969;32;20080;-79
2023/05/13 07:54:09;;;;;;;16.12;7.85;;;;;;;14.28;83.32;98446.28;4442694;32;20109;-79
2023/05/13 07:56:36;;;;;;;17.58;7.47;;;;;;;14.63;83.29;98447.09;4457017;32;20367;-79
2023/05/13 07:59:04;;;;;;;19.62;8.60;;;;;;;14.18;83.45;98443.34;4456960;32;20450;-79
2023/05/13 08:01:31;;;;;;;17.67;10.40;;;;;;;14.26;82.12;98442.94;4456691;32;20112;-79
2023/05/13 08:03:57;;;;;;;17.08;9.38;;;;;;;14.37;81.79;98452.78;4442964;32;20123;-79
2023/05/13 08:06:25;;;;;;;14.87;7.35;;;;;;;13.75;82.85;98444.66;4456642;32;20093;-79
2023/05/13 08:08:52;;;;;;;15.18;7.57;;;;;;;13.98;84.53;98453.03;4456760;32;20089;-79
2023/05/13 08:11:18;;;;;;;15.77;8.77;;;;;;;14.52;82.01;98464.97;4456858;32;20081;-79
2023/05/13 08:13:45;;;;;;;18.12;9.73;;;;;;;14.13;84.69;98460.87;4456585;32;20093;-79
2023/05/13 08:16:12;;;;;;;15.57;8.75;;;;;;;14.31;83.18;98455.69;4456931;32;20097;-79
2023/05/13 08:18:39;;;;;;;16.50;9.30;;;;;;;14.34;80.17;98463.28;4456677;32;20093;-79
2023/05/13 08:21:06;;;;;;;16.55;7.55;;;;;;;14.21;81.96;98465.69;4456538;32;20073;-79
2023/05/13 08:23:35;;;;;;;15.75;8.10;;;;;;;14.57;80.21;98468.19;4456675;32;20089;-79
2023/05/13 08:26:11;;;;;;;17.00;8.23;;;;;;;14.32;82.66;98473.75;4456910;32;20117;-79
2023/05/13 08:28:38;;;;;;;14.70;7.47;;;;;;;14.18;84.51;98471.03;4456270;32;20112;-79
2023/05/13 08:31:05;;;;;;;15.43;8.82;;;;;;;14.34;82.98;98474.53;4456889;32;20073;-79
2023/05/13 08:33:33;;;;;;;19.17;9.98;;;;;;;13.70;87.01;98474.28;4456845;32;20448;-79
2023/05/13 08:36:00;;;;;;;18.80;10.52;;;;;;;13.69;86.58;98468.28;4456328;32;20100;-79
2023/05/13 08:38:27;;;;;;;16.95;9.55;;;;;;;13.98;84.82;98477.22;4456664;32;20375;-79
2023/05/13 08:40:54;;;;;;;19.00;9.43;;;;;;;14.04;86.42;98476.09;4456568;32;20081;-79
2023/05/13 08:43:22;;;;;;;15.40;7.75;;;;;;;14.32;85.27;98481.56;4456033;32;20162;-79
2023/05/13 08:45:52;;;;;;;18.83;10.75;;;;;;;14.15;84.78;98479.00;4456878;32;20151;-79
2023/05/13 08:48:19;;;;;;;18.27;9.18;;;;;;;14.14;86.07;98480.75;4456562;32;20379;-80
2023/05/13 08:50:47;;;;;;;15.43;7.53;;;;;;;14.06;88.37;98477.69;4442373;32;20069;-80
2023/05/13 08:53:16;;;;;;;15.93;8.77;;;;;;;14.12;87.97;98485.16;4456419;32;20450;-80
2023/05/13 08:55:43;;;;;;;15.77;7.90;;;;;;;13.75;89.25;98480.09;4442421;32;20101;-80
2023/05/13 08:58:10;;;;;;;18.02;9.77;;;;;;;14.16;86.86;98476.31;4456597;32;20089;-80
2023/05/13 09:00:38;;;;;;;13.50;7.72;;;;;;;13.74;89.88;98481.88;4456554;32;20077;-80
2023/05/13 09:03:05;;;;;;;16.27;9.73;;;;;;;13.41;93.69;98480.91;4456117;32;20112;-80
2023/05/13 09:05:33;;;;;;;17.83;10.32;;;;;;;13.38;92.98;98481.03;4456702;32;20111;-80
2023/05/13 09:08:08;;;;;;;20.23;10.75;;;;;;;14.01;90.85;98484.00;4456349;32;20725;-80
2023/05/13 09:10:35;;;;;;;16.60;9.48;;;;;;;14.23;90.29;98483.78;4456320;32;20111;-79
2023/05/13 09:13:03;;;;;;;17.00;9.18;;;;;;;14.48;88.30;98479.06;4456452;32;20158;-80
2023/05/13 09:15:30;;;;;;;13.90;7.53;;;;;;;14.06;88.81;98480.28;4456565;32;20356;-80
2023/05/13 09:18:00;;;;;;;14.43;7.68;;;;;;;13.79;90.90;98479.03;4455952;32;20443;-80
2023/05/13 09:20:27;;;;;;;17.20;10.82;;;;;;;13.97;90.66;98467.75;4456390;32;20150;-80
2023/05/13 09:23:14;;;;;;;19.27;11.63;;;;;;;14.15;89.63;98481.59;4456463;32;20170;-80
2023/05/13 09:25:42;;;;;;;22.42;10.73;;;;;;;14.11;90.56;98480.88;4456179;32;20092;-80
2023/05/13 09:28:13;;;;;;;19.08;12.07;;;;;;;14.90;85.54;98486.34;4456191;32;20093;-80
2023/05/13 09:30:41;;;;;;;18.10;9.18;;;;;;;14.85;84.88;98490.09;4456063;32;20068;-80
2023/05/13 09:33:13;;;;;;;20.40;11.32;;;;;;;14.78;84.11;98494.81;4456462;32;20090;-80
2023/05/13 09:35:49;;;;;;;21.17;11.25;;;;;;;14.69;86.94;98485.72;4456304;32;20109;-80
2023/05/13 09:38:27;;;;;;;16.27;8.57;;;;;;;14.74;84.93;98490.66;4441934;32;20093;-80
2023/05/13 09:40:56;;;;;;;21.83;12.50;;;;;;;14.68;86.64;98491.00;4456391;32;20088;-80
2023/05/13 09:43:35;;;;;;;22.02;12.82;;;;;;;14.34;88.06;98489.25;4455955;32;20173;-80
2023/05/13 09:46:03;;;;;;;19.60;11.05;;;;;;;14.54;88.28;98493.47;4441898;32;20169;-80
2023/05/13 09:48:32;;;;;;;22.00;13.00;;;;;;;14.50;85.56;98492.78;4456181;32;20089;-80
2023/05/13 09:50:59;;;;;;;19.85;12.02;;;;;;;14.53;88.00;98495.22;4456055;32;20081;-80
2023/05/13 09:53:27;;;;;;;24.67;14.27;;;;;;;14.73;84.30;98500.22;4456024;32;20132;-80
2023/05/13 09:55:55;;;;;;;24.85;14.87;;;;;;;14.13;87.05;98501.56;4456250;32;20128;-80
2023/05/13 09:58:24;;;;;;;23.83;13.65;;;;;;;14.05;87.02;98490.75;4456083;32;20161;-80
2023/05/13 10:00:51;;;;;;;25.00;14.10;;;;;;;14.27;87.34;98501.72;4455849;32;20089;-80
2023/05/13 10:03:18;;;;;;;22.35;12.40;;;;;;;14.41;86.51;98494.06;4455338;32;20116;-80
2023/05/13 10:05:46;;;;;;;25.58;14.65;;;;;;;14.34;86.97;98502.22;4455720;32;20093;-80
2023/05/13 10:08:16;;;;;;;22.45;12.80;;;;;;;14.83;85.11;98499.75;4442142;32;20085;-80
2023/05/13 10:10:46;;;;;;;26.33;14.95;;;;;;;14.72;84.14;98500.31;4456171;32;20098;-80
2023/05/13 10:13:18;;;;;;;27.15;15.57;;;;;;;14.56;87.14;98491.63;4455694;32;20093;-79
2023/05/13 10:15:52;;;;;;;26.33;15.70;;;;;;;14.73;85.61;98487.22;4442271;32;20110;-80
2023/05/13 10:18:21;;;;;;;25.88;15.85;;;;;;;14.65;86.42;98489.38;4456076;32;20784;-80
2023/05/13 10:20:51;;;;;;;24.42;15.57;;;;;;;14.94;84.65;98490.47;4455617;32;20401;-80
2023/05/13 10:23:21;;;;;;;24.05;13.52;;;;;;;14.66;87.03;98488.47;4455997;32;20115;-80
2023/05/13 10:25:49;;;;;;;26.00;15.20;;;;;;;14.68;86.23;98493.59;4455836;32;20089;-80
2023/05/13 10:28:16;;;;;;;23.77;14.05;;;;;;;14.71;84.85;98490.84;4441409;32;20111;-80
2023/05/13 10:30:44;;;;;;;26.48;14.38;;;;;;;14.38;89.82;98490.78;4442040;32;20080;-80
2023/05/13 10:33:11;;;;;;;20.65;11.68;;;;;;;14.59;86.09;98492.31;4441926;32;20152;-80
2023/05/13 10:35:42;;;;;;;27.10;15.50;;;;;;;14.08;88.99;98487.97;4455461;32;20111;-80
2023/05/13 10:38:32;;;;;;;22.23;13.13;;;;;;;14.39;87.47;98489.88;4441911;32;20093;-80
2023/05/13 10:41:18;;;;;;;26.67;15.02;;;;;;;14.55;87.08;98484.75;4455340;32;20565;-80
2023/05/13 10:43:45;;;;;;;24.92;14.80;;;;;;;14.70;86.05;98489.16;4455424;32;20427;-80
2023/05/13 10:46:12;;;;;;;27.05;14.77;;;;;;;14.76;85.18;98483.63;4441731;32;20100;-80
2023/05/13 10:48:49;;;;;;;25.40;15.23;;;;;;;14.51;86.27;98489.28;4455250;32;20093;-80
2023/05/13 10:51:17;;;;;;;28.45;15.80;;;;;;;14.69;87.11;98485.72;4455691;32;20089;-80
2023/05/13 10:53:52;;;;;;;28.00;16.30;;;;;;;15.37;82.88;98480.31;4441561;32;20096;-80
2023/05/13 10:56:24;;;;;;;26.20;14.75;;;;;;;15.23;84.55;98482.84;4455087;32;20111;-80
2023/05/13 10:58:58;;;;;;;24.30;14.50;;;;;;;15.03;83.51;98495.16;4455440;32;20093;-80
2023/05/13 11:01:30;;;;;;;24.40;12.50;;;;;;;14.91;84.22;98487.19;4455512;32;20069;-80
2023/05/13 11:03:59;;;;;;;28.75;16.50;;;;;;;14.83;84.88;98494.53;4440971;32;20379;-80
2023/05/13 11:06:37;;;;;;;29.48;17.00;;;;;;;14.83;84.98;98499.75;4455357;32;20093;-80
2023/05/13 11:09:11;;;;;;;31.02;16.87;;;;;;;14.66;86.46;98495.41;4454940;32;20109;-80
2023/05/13 11:11:38;;;;;;;24.63;14.05;;;;;;;15.05;86.57;98495.09;4455382;32;20073;-80
2023/05/13 11:14:16;;;;;;;33.60;19.08;;;;;;;15.45;84.86;98492.91;4455253;32;20093;-80
2023/05/13 11:16:49;;;;;;;29.85;18.00;;;;;;;14.87;84.88;98490.84;4456985;32;20089;-80
2023/05/13 11:19:44;;;;;;;27.40;15.52;;;;;;;14.70;85.45;98484.81;4457278;32;20146;-80
2023/05/13 11:22:17;;;;;;;29.67;17.77;;;;;;;14.99;84.06;98492.78;4457273;32;20073;-80
2023/05/13 11:24:46;;;;;;;29.35;17.73;;;;;;;15.15;85.20;98495.44;4456716;32;20368;-80